Airfield :
LOGIN :

Register | Disclaimer

   EN    FR    IT 

 










Legend :    VFR   Marginal VFR   IFR   Intensive IFR   Very Intensive IFR
Visi :
Ceiling :
>= 8 km
>= 3000ft
5 to 8 km
1000 to 3000 ft
1500m to 5 km
500 to 1000 ft
800 to 1500m
200 to 500 ft
< 800m
< 200 ft
Symbols :   Thunderstorms  Fog  Heavy snow  Heavy precipitations  Wind > 20 kt
SIGMETs :     Misc.  Thunderstorms  Icing  Turbulence  Mountain Waves  Volcanic Ashes






- Airport Elevation : 79 ft
- IATA code : NSY


LICZ - Sigonella (Mil) Catania

CURRENT METAR :
  • 121655Z 10010KT 9999 FEW060 19/10 Q1012 RMK FEW VIS MIN 9999 WIND THR28 10007KT WIND THR10 11009KT A2990 BLU

EXPIRED METARs :
  • 121555Z 10012KT 9999 FEW060 21/07 Q1012 RMK FEW VIS MIN 9999 WIND THR28 10014KT WIND THR10 10012KT A2990 BLU
  • 121455Z 09015KT 9999 FEW060 22/05 Q1012 RMK FEW VIS MIN 9999 WIND THR28 09013KT WIND THR10 10014KT A2990 BLU

TAF TAF LICZ
Valid from the 12 at 12:00 until the 13 at 12:00 UTC


121100Z 1212/1312 10009KT 9999 FEW030
TEMPO 1212/1214 28011KT
BECMG 1219/1221 28006KT



MET'MAP, your aeronautical weather chart ! - Copyright ORBIFLY December 2007 - Disclaimer

ORBIFLY MET'MAP TEAM :

Programming & Development : Alexandra Zaïnal
Concept & original design : Baudouin d'Aumeries
Assistance for programming : Marc-Olivier Méhu
Technical & hardware support : Manuel Goepfert

Contact : metmap@orbifly.com




SOURCES & CREDITS :

   NOAA